sensor_id;sensor_type;location;lat;lon;timestamp;P1;durP1;ratioP1;P2;durP2;ratioP2
12312;SDS011;6220;53.580;9.758;2023-04-03T00:00:58;5.80;;;2.60;;
12312;SDS011;6220;53.580;9.758;2023-04-03T00:03:23;5.37;;;2.80;;
12312;SDS011;6220;53.580;9.758;2023-04-03T00:05:48;7.50;;;3.00;;
12312;SDS011;6220;53.580;9.758;2023-04-03T00:08:14;5.10;;;2.87;;
12312;SDS011;6220;53.580;9.758;2023-04-03T00:10:40;5.37;;;2.53;;
12312;SDS011;6220;53.580;9.758;2023-04-03T00:13:06;12.00;;;2.97;;
12312;SDS011;6220;53.580;9.758;2023-04-03T00:15:32;5.13;;;2.53;;
12312;SDS011;6220;53.580;9.758;2023-04-03T00:17:57;5.93;;;2.80;;
12312;SDS011;6220;53.580;9.758;2023-04-03T00:20:24;5.37;;;2.67;;
12312;SDS011;6220;53.580;9.758;2023-04-03T00:22:49;9.50;;;2.60;;
12312;SDS011;6220;53.580;9.758;2023-04-03T00:25:15;9.57;;;2.83;;
12312;SDS011;6220;53.580;9.758;2023-04-03T00:27:40;6.53;;;2.90;;
12312;SDS011;6220;53.580;9.758;2023-04-03T00:30:06;8.00;;;2.90;;
12312;SDS011;6220;53.580;9.758;2023-04-03T00:32:33;7.80;;;2.20;;
12312;SDS011;6220;53.580;9.758;2023-04-03T00:34:59;5.20;;;2.60;;
12312;SDS011;6220;53.580;9.758;2023-04-03T00:37:25;4.30;;;2.50;;
12312;SDS011;6220;53.580;9.758;2023-04-03T00:39:50;5.97;;;2.37;;
12312;SDS011;6220;53.580;9.758;2023-04-03T00:42:15;6.20;;;2.50;;
12312;SDS011;6220;53.580;9.758;2023-04-03T00:47:07;5.07;;;2.73;;
12312;SDS011;6220;53.580;9.758;2023-04-03T00:49:34;8.40;;;2.73;;
12312;SDS011;6220;53.580;9.758;2023-04-03T00:52:01;5.33;;;2.50;;
12312;SDS011;6220;53.580;9.758;2023-04-03T00:54:26;5.13;;;3.00;;
12312;SDS011;6220;53.580;9.758;2023-04-03T00:56:52;5.43;;;2.33;;
12312;SDS011;6220;53.580;9.758;2023-04-03T00:59:24;7.77;;;2.70;;
12312;SDS011;6220;53.580;9.758;2023-04-03T01:01:52;6.73;;;2.90;;
12312;SDS011;6220;53.580;9.758;2023-04-03T01:04:30;3.87;;;2.53;;
12312;SDS011;6220;53.580;9.758;2023-04-03T01:07:02;4.87;;;2.73;;
12312;SDS011;6220;53.580;9.758;2023-04-03T01:09:36;7.97;;;2.80;;
12312;SDS011;6220;53.580;9.758;2023-04-03T01:14:48;6.00;;;2.63;;
12312;SDS011;6220;53.580;9.758;2023-04-03T01:17:32;5.30;;;2.50;;
12312;SDS011;6220;53.580;9.758;2023-04-03T01:28:03;9.37;;;2.90;;
12312;SDS011;6220;53.580;9.758;2023-04-03T01:30:32;7.17;;;2.73;;
12312;SDS011;6220;53.580;9.758;2023-04-03T01:33:01;8.23;;;3.03;;
12312;SDS011;6220;53.580;9.758;2023-04-03T01:35:27;5.50;;;2.80;;
12312;SDS011;6220;53.580;9.758;2023-04-03T01:37:52;8.00;;;3.13;;
12312;SDS011;6220;53.580;9.758;2023-04-03T01:40:18;6.53;;;2.70;;
12312;SDS011;6220;53.580;9.758;2023-04-03T01:42:43;5.83;;;3.00;;
12312;SDS011;6220;53.580;9.758;2023-04-03T01:45:09;7.47;;;2.67;;
12312;SDS011;6220;53.580;9.758;2023-04-03T01:47:34;8.67;;;2.60;;
12312;SDS011;6220;53.580;9.758;2023-04-03T01:50:00;9.37;;;3.10;;
12312;SDS011;6220;53.580;9.758;2023-04-03T01:52:25;7.33;;;2.80;;
12312;SDS011;6220;53.580;9.758;2023-04-03T01:54:51;3.77;;;2.50;;
12312;SDS011;6220;53.580;9.758;2023-04-03T01:57:16;5.33;;;2.83;;
12312;SDS011;6220;53.580;9.758;2023-04-03T01:59:41;7.00;;;3.17;;
12312;SDS011;6220;53.580;9.758;2023-04-03T02:02:07;7.13;;;3.27;;
12312;SDS011;6220;53.580;9.758;2023-04-03T02:04:32;6.67;;;2.80;;
12312;SDS011;6220;53.580;9.758;2023-04-03T02:06:58;7.37;;;3.03;;
12312;SDS011;6220;53.580;9.758;2023-04-03T02:09:23;7.50;;;3.53;;
12312;SDS011;6220;53.580;9.758;2023-04-03T02:11:48;7.00;;;2.90;;
12312;SDS011;6220;53.580;9.758;2023-04-03T02:14:14;7.60;;;2.87;;
12312;SDS011;6220;53.580;9.758;2023-04-03T02:16:39;6.87;;;2.77;;
12312;SDS011;6220;53.580;9.758;2023-04-03T02:19:05;4.93;;;3.13;;
12312;SDS011;6220;53.580;9.758;2023-04-03T02:21:30;6.53;;;3.00;;
12312;SDS011;6220;53.580;9.758;2023-04-03T02:23:55;6.13;;;3.20;;
12312;SDS011;6220;53.580;9.758;2023-04-03T02:26:21;4.50;;;2.70;;
12312;SDS011;6220;53.580;9.758;2023-04-03T02:28:47;8.60;;;3.10;;
12312;SDS011;6220;53.580;9.758;2023-04-03T02:31:12;8.07;;;3.00;;
12312;SDS011;6220;53.580;9.758;2023-04-03T02:33:38;7.57;;;3.60;;
12312;SDS011;6220;53.580;9.758;2023-04-03T02:36:04;6.07;;;2.70;;
12312;SDS011;6220;53.580;9.758;2023-04-03T02:38:31;7.83;;;3.03;;
12312;SDS011;6220;53.580;9.758;2023-04-03T02:41:07;5.17;;;2.70;;
12312;SDS011;6220;53.580;9.758;2023-04-03T02:43:34;10.53;;;3.63;;
12312;SDS011;6220;53.580;9.758;2023-04-03T02:45:59;5.50;;;2.97;;
12312;SDS011;6220;53.580;9.758;2023-04-03T02:48:25;5.90;;;3.00;;
12312;SDS011;6220;53.580;9.758;2023-04-03T02:50:51;6.83;;;3.00;;
12312;SDS011;6220;53.580;9.758;2023-04-03T02:53:16;5.10;;;2.87;;
12312;SDS011;6220;53.580;9.758;2023-04-03T02:55:42;6.90;;;2.90;;
12312;SDS011;6220;53.580;9.758;2023-04-03T02:58:07;5.63;;;3.20;;
12312;SDS011;6220;53.580;9.758;2023-04-03T03:00:33;4.67;;;2.53;;
12312;SDS011;6220;53.580;9.758;2023-04-03T03:02:59;10.83;;;3.33;;
12312;SDS011;6220;53.580;9.758;2023-04-03T03:05:24;8.83;;;3.03;;
12312;SDS011;6220;53.580;9.758;2023-04-03T03:07:50;5.83;;;3.07;;
12312;SDS011;6220;53.580;9.758;2023-04-03T03:10:15;4.90;;;3.17;;
12312;SDS011;6220;53.580;9.758;2023-04-03T03:12:41;7.23;;;3.07;;
12312;SDS011;6220;53.580;9.758;2023-04-03T03:15:07;3.90;;;2.70;;
12312;SDS011;6220;53.580;9.758;2023-04-03T03:17:33;6.17;;;3.00;;
12312;SDS011;6220;53.580;9.758;2023-04-03T03:20:00;6.13;;;3.03;;
12312;SDS011;6220;53.580;9.758;2023-04-03T03:22:26;7.17;;;2.90;;
12312;SDS011;6220;53.580;9.758;2023-04-03T03:24:52;6.63;;;2.73;;
12312;SDS011;6220;53.580;9.758;2023-04-03T03:27:18;8.10;;;3.23;;
12312;SDS011;6220;53.580;9.758;2023-04-03T03:29:43;7.60;;;3.27;;
12312;SDS011;6220;53.580;9.758;2023-04-03T03:32:09;7.00;;;2.80;;
12312;SDS011;6220;53.580;9.758;2023-04-03T03:34:34;8.17;;;3.37;;
12312;SDS011;6220;53.580;9.758;2023-04-03T03:36:59;7.93;;;2.87;;
12312;SDS011;6220;53.580;9.758;2023-04-03T03:39:25;9.23;;;3.60;;
12312;SDS011;6220;53.580;9.758;2023-04-03T03:41:50;5.80;;;3.07;;
12312;SDS011;6220;53.580;9.758;2023-04-03T03:44:18;6.37;;;3.20;;
12312;SDS011;6220;53.580;9.758;2023-04-03T03:46:43;6.67;;;3.20;;
12312;SDS011;6220;53.580;9.758;2023-04-03T03:49:10;8.03;;;3.37;;
12312;SDS011;6220;53.580;9.758;2023-04-03T03:51:36;5.90;;;2.90;;
12312;SDS011;6220;53.580;9.758;2023-04-03T03:54:02;5.50;;;3.00;;
12312;SDS011;6220;53.580;9.758;2023-04-03T03:56:28;5.57;;;3.33;;
12312;SDS011;6220;53.580;9.758;2023-04-03T03:58:53;6.50;;;3.70;;
12312;SDS011;6220;53.580;9.758;2023-04-03T04:01:21;4.43;;;3.03;;
12312;SDS011;6220;53.580;9.758;2023-04-03T04:03:47;9.37;;;3.33;;
12312;SDS011;6220;53.580;9.758;2023-04-03T04:06:12;6.50;;;2.80;;
12312;SDS011;6220;53.580;9.758;2023-04-03T04:08:38;4.63;;;2.80;;
12312;SDS011;6220;53.580;9.758;2023-04-03T04:11:03;9.37;;;3.33;;
12312;SDS011;6220;53.580;9.758;2023-04-03T04:13:28;8.07;;;3.50;;
12312;SDS011;6220;53.580;9.758;2023-04-03T04:15:54;7.27;;;3.10;;
12312;SDS011;6220;53.580;9.758;2023-04-03T04:18:19;5.73;;;3.17;;
12312;SDS011;6220;53.580;9.758;2023-04-03T04:20:46;8.17;;;3.00;;
12312;SDS011;6220;53.580;9.758;2023-04-03T04:23:11;8.37;;;2.90;;
12312;SDS011;6220;53.580;9.758;2023-04-03T04:25:37;8.07;;;3.53;;
12312;SDS011;6220;53.580;9.758;2023-04-03T04:28:02;7.03;;;3.27;;
12312;SDS011;6220;53.580;9.758;2023-04-03T04:30:27;6.57;;;3.10;;
12312;SDS011;6220;53.580;9.758;2023-04-03T04:32:53;6.40;;;3.60;;
12312;SDS011;6220;53.580;9.758;2023-04-03T04:35:18;7.90;;;3.87;;
12312;SDS011;6220;53.580;9.758;2023-04-03T04:37:44;8.67;;;4.23;;
12312;SDS011;6220;53.580;9.758;2023-04-03T04:40:09;6.70;;;3.60;;
12312;SDS011;6220;53.580;9.758;2023-04-03T04:42:35;7.43;;;3.73;;
12312;SDS011;6220;53.580;9.758;2023-04-03T04:45:00;10.47;;;3.03;;
12312;SDS011;6220;53.580;9.758;2023-04-03T04:47:25;6.40;;;3.57;;
12312;SDS011;6220;53.580;9.758;2023-04-03T04:49:53;5.40;;;3.13;;
12312;SDS011;6220;53.580;9.758;2023-04-03T04:52:18;7.20;;;3.40;;
12312;SDS011;6220;53.580;9.758;2023-04-03T04:54:45;8.13;;;3.50;;
12312;SDS011;6220;53.580;9.758;2023-04-03T04:57:10;11.07;;;3.67;;
12312;SDS011;6220;53.580;9.758;2023-04-03T04:59:36;6.37;;;3.67;;
12312;SDS011;6220;53.580;9.758;2023-04-03T05:02:02;6.73;;;3.47;;
12312;SDS011;6220;53.580;9.758;2023-04-03T05:04:27;6.63;;;3.50;;
12312;SDS011;6220;53.580;9.758;2023-04-03T05:06:53;6.43;;;3.80;;
12312;SDS011;6220;53.580;9.758;2023-04-03T05:09:18;7.40;;;3.90;;
12312;SDS011;6220;53.580;9.758;2023-04-03T05:11:45;5.70;;;3.70;;
12312;SDS011;6220;53.580;9.758;2023-04-03T05:14:10;7.10;;;3.53;;
12312;SDS011;6220;53.580;9.758;2023-04-03T05:16:36;4.37;;;3.70;;
12312;SDS011;6220;53.580;9.758;2023-04-03T05:19:01;8.30;;;3.17;;
12312;SDS011;6220;53.580;9.758;2023-04-03T05:21:27;11.50;;;3.93;;
12312;SDS011;6220;53.580;9.758;2023-04-03T05:23:57;6.33;;;3.57;;
12312;SDS011;6220;53.580;9.758;2023-04-03T05:26:27;9.83;;;4.13;;
12312;SDS011;6220;53.580;9.758;2023-04-03T05:28:53;9.47;;;4.20;;
12312;SDS011;6220;53.580;9.758;2023-04-03T05:31:18;10.37;;;3.80;;
12312;SDS011;6220;53.580;9.758;2023-04-03T05:33:44;8.97;;;4.17;;
12312;SDS011;6220;53.580;9.758;2023-04-03T05:36:09;7.17;;;4.10;;
12312;SDS011;6220;53.580;9.758;2023-04-03T05:38:37;9.93;;;4.10;;
12312;SDS011;6220;53.580;9.758;2023-04-03T05:41:02;30.50;;;15.60;;
12312;SDS011;6220;53.580;9.758;2023-04-03T05:43:27;16.80;;;8.83;;
12312;SDS011;6220;53.580;9.758;2023-04-03T05:45:53;11.10;;;4.90;;
12312;SDS011;6220;53.580;9.758;2023-04-03T05:48:18;11.53;;;4.30;;
12312;SDS011;6220;53.580;9.758;2023-04-03T05:50:43;10.33;;;4.07;;
12312;SDS011;6220;53.580;9.758;2023-04-03T05:53:25;6.83;;;3.93;;
12312;SDS011;6220;53.580;9.758;2023-04-03T05:55:52;7.40;;;3.77;;
12312;SDS011;6220;53.580;9.758;2023-04-03T05:58:18;8.30;;;3.90;;
12312;SDS011;6220;53.580;9.758;2023-04-03T06:00:44;8.43;;;3.60;;
12312;SDS011;6220;53.580;9.758;2023-04-03T06:03:10;8.17;;;3.70;;
12312;SDS011;6220;53.580;9.758;2023-04-03T06:05:35;11.23;;;3.57;;
12312;SDS011;6220;53.580;9.758;2023-04-03T06:08:01;9.50;;;3.60;;
12312;SDS011;6220;53.580;9.758;2023-04-03T06:10:26;8.37;;;3.83;;
12312;SDS011;6220;53.580;9.758;2023-04-03T06:12:52;6.37;;;3.47;;
12312;SDS011;6220;53.580;9.758;2023-04-03T06:15:17;6.53;;;3.80;;
12312;SDS011;6220;53.580;9.758;2023-04-03T06:17:43;8.60;;;3.67;;
12312;SDS011;6220;53.580;9.758;2023-04-03T06:20:08;7.17;;;3.40;;
12312;SDS011;6220;53.580;9.758;2023-04-03T06:22:34;7.47;;;3.50;;
12312;SDS011;6220;53.580;9.758;2023-04-03T06:25:00;8.83;;;3.40;;
12312;SDS011;6220;53.580;9.758;2023-04-03T06:27:27;7.13;;;4.07;;
12312;SDS011;6220;53.580;9.758;2023-04-03T06:29:52;6.23;;;3.40;;
12312;SDS011;6220;53.580;9.758;2023-04-03T06:32:17;5.60;;;3.03;;
12312;SDS011;6220;53.580;9.758;2023-04-03T06:34:44;5.87;;;2.97;;
12312;SDS011;6220;53.580;9.758;2023-04-03T06:37:17;5.93;;;3.17;;
12312;SDS011;6220;53.580;9.758;2023-04-03T06:39:44;4.03;;;2.70;;
12312;SDS011;6220;53.580;9.758;2023-04-03T06:42:10;5.93;;;3.20;;
12312;SDS011;6220;53.580;9.758;2023-04-03T06:44:36;7.07;;;3.17;;
12312;SDS011;6220;53.580;9.758;2023-04-03T06:47:02;10.00;;;3.20;;
12312;SDS011;6220;53.580;9.758;2023-04-03T06:49:27;6.97;;;2.97;;
12312;SDS011;6220;53.580;9.758;2023-04-03T06:51:53;6.43;;;2.97;;
12312;SDS011;6220;53.580;9.758;2023-04-03T06:54:19;6.13;;;3.00;;
12312;SDS011;6220;53.580;9.758;2023-04-03T06:56:44;8.77;;;2.90;;
12312;SDS011;6220;53.580;9.758;2023-04-03T06:59:10;8.63;;;3.50;;
12312;SDS011;6220;53.580;9.758;2023-04-03T07:01:37;6.83;;;2.70;;
12312;SDS011;6220;53.580;9.758;2023-04-03T07:04:03;10.03;;;3.13;;
12312;SDS011;6220;53.580;9.758;2023-04-03T07:06:28;8.47;;;3.13;;
12312;SDS011;6220;53.580;9.758;2023-04-03T07:08:54;6.77;;;3.27;;
12312;SDS011;6220;53.580;9.758;2023-04-03T07:11:20;4.73;;;2.93;;
12312;SDS011;6220;53.580;9.758;2023-04-03T07:13:45;8.13;;;3.30;;
12312;SDS011;6220;53.580;9.758;2023-04-03T07:16:11;5.07;;;2.73;;
12312;SDS011;6220;53.580;9.758;2023-04-03T07:18:36;5.13;;;2.77;;
12312;SDS011;6220;53.580;9.758;2023-04-03T07:21:02;8.10;;;3.37;;
12312;SDS011;6220;53.580;9.758;2023-04-03T07:23:28;8.83;;;2.93;;
12312;SDS011;6220;53.580;9.758;2023-04-03T07:25:53;6.27;;;3.10;;
12312;SDS011;6220;53.580;9.758;2023-04-03T07:28:20;5.33;;;2.97;;
12312;SDS011;6220;53.580;9.758;2023-04-03T07:30:54;6.37;;;3.10;;
12312;SDS011;6220;53.580;9.758;2023-04-03T07:33:24;6.13;;;2.70;;
12312;SDS011;6220;53.580;9.758;2023-04-03T07:35:50;5.07;;;2.90;;
12312;SDS011;6220;53.580;9.758;2023-04-03T07:38:15;7.70;;;2.90;;
12312;SDS011;6220;53.580;9.758;2023-04-03T07:40:45;6.57;;;3.53;;
12312;SDS011;6220;53.580;9.758;2023-04-03T07:43:11;4.83;;;3.03;;
12312;SDS011;6220;53.580;9.758;2023-04-03T07:45:37;5.30;;;2.80;;
12312;SDS011;6220;53.580;9.758;2023-04-03T07:48:02;7.67;;;3.10;;
12312;SDS011;6220;53.580;9.758;2023-04-03T07:50:28;5.63;;;2.60;;
12312;SDS011;6220;53.580;9.758;2023-04-03T07:52:55;5.00;;;2.70;;
12312;SDS011;6220;53.580;9.758;2023-04-03T07:55:21;6.43;;;2.67;;
12312;SDS011;6220;53.580;9.758;2023-04-03T07:57:46;6.57;;;3.03;;
12312;SDS011;6220;53.580;9.758;2023-04-03T08:00:12;5.03;;;2.47;;
12312;SDS011;6220;53.580;9.758;2023-04-03T08:02:38;4.70;;;2.37;;
12312;SDS011;6220;53.580;9.758;2023-04-03T08:05:03;5.43;;;2.70;;
12312;SDS011;6220;53.580;9.758;2023-04-03T08:07:29;7.43;;;2.53;;
12312;SDS011;6220;53.580;9.758;2023-04-03T08:09:54;7.07;;;2.53;;
12312;SDS011;6220;53.580;9.758;2023-04-03T08:12:20;5.40;;;2.40;;
12312;SDS011;6220;53.580;9.758;2023-04-03T08:14:45;5.77;;;2.10;;
12312;SDS011;6220;53.580;9.758;2023-04-03T08:17:11;7.53;;;2.43;;
12312;SDS011;6220;53.580;9.758;2023-04-03T08:19:38;6.40;;;2.57;;
12312;SDS011;6220;53.580;9.758;2023-04-03T08:22:04;3.90;;;1.90;;
12312;SDS011;6220;53.580;9.758;2023-04-03T08:24:30;5.40;;;2.23;;
12312;SDS011;6220;53.580;9.758;2023-04-03T08:27:04;5.30;;;1.97;;
12312;SDS011;6220;53.580;9.758;2023-04-03T08:29:29;6.53;;;2.07;;
12312;SDS011;6220;53.580;9.758;2023-04-03T08:31:55;3.77;;;1.63;;
12312;SDS011;6220;53.580;9.758;2023-04-03T08:34:20;3.70;;;1.80;;
12312;SDS011;6220;53.580;9.758;2023-04-03T08:36:46;6.47;;;2.27;;
12312;SDS011;6220;53.580;9.758;2023-04-03T08:39:12;4.47;;;1.70;;
12312;SDS011;6220;53.580;9.758;2023-04-03T08:41:41;4.40;;;1.90;;
12312;SDS011;6220;53.580;9.758;2023-04-03T08:44:21;4.33;;;1.43;;
12312;SDS011;6220;53.580;9.758;2023-04-03T08:50:00;4.37;;;2.00;;
12312;SDS011;6220;53.580;9.758;2023-04-03T08:52:32;3.90;;;2.30;;
12312;SDS011;6220;53.580;9.758;2023-04-03T08:55:13;4.23;;;1.43;;
12312;SDS011;6220;53.580;9.758;2023-04-03T08:57:40;2.93;;;1.50;;
12312;SDS011;6220;53.580;9.758;2023-04-03T09:00:17;3.30;;;1.33;;
12312;SDS011;6220;53.580;9.758;2023-04-03T09:02:52;3.97;;;1.70;;
12312;SDS011;6220;53.580;9.758;2023-04-03T09:05:20;2.57;;;1.53;;
12312;SDS011;6220;53.580;9.758;2023-04-03T09:07:53;2.87;;;1.70;;
12312;SDS011;6220;53.580;9.758;2023-04-03T09:10:24;6.50;;;1.90;;
12312;SDS011;6220;53.580;9.758;2023-04-03T09:12:55;4.40;;;1.30;;
12312;SDS011;6220;53.580;9.758;2023-04-03T09:15:25;3.43;;;1.60;;
12312;SDS011;6220;53.580;9.758;2023-04-03T09:23:34;2.70;;;1.20;;
12312;SDS011;6220;53.580;9.758;2023-04-03T09:26:07;5.43;;;1.53;;
12312;SDS011;6220;53.580;9.758;2023-04-03T09:28:39;2.30;;;1.50;;
12312;SDS011;6220;53.580;9.758;2023-04-03T09:31:41;4.03;;;1.30;;
12312;SDS011;6220;53.580;9.758;2023-04-03T09:34:05;2.73;;;1.30;;
12312;SDS011;6220;53.580;9.758;2023-04-03T09:39:11;4.60;;;1.90;;
12312;SDS011;6220;53.580;9.758;2023-04-03T09:41:37;4.20;;;1.70;;
12312;SDS011;6220;53.580;9.758;2023-04-03T09:44:17;6.00;;;1.73;;
12312;SDS011;6220;53.580;9.758;2023-04-03T09:46:46;2.20;;;1.47;;
12312;SDS011;6220;53.580;9.758;2023-04-03T09:49:11;4.00;;;1.70;;
12312;SDS011;6220;53.580;9.758;2023-04-03T09:51:37;2.07;;;1.63;;
12312;SDS011;6220;53.580;9.758;2023-04-03T09:54:24;5.40;;;2.30;;
12312;SDS011;6220;53.580;9.758;2023-04-03T09:56:57;3.27;;;1.67;;
12312;SDS011;6220;53.580;9.758;2023-04-03T09:59:43;3.77;;;1.87;;
12312;SDS011;6220;53.580;9.758;2023-04-03T10:02:28;4.03;;;1.50;;
12312;SDS011;6220;53.580;9.758;2023-04-03T10:04:59;4.80;;;1.50;;
12312;SDS011;6220;53.580;9.758;2023-04-03T10:09:59;4.80;;;1.70;;
12312;SDS011;6220;53.580;9.758;2023-04-03T10:12:28;2.30;;;1.50;;
12312;SDS011;6220;53.580;9.758;2023-04-03T10:14:55;3.10;;;1.63;;
12312;SDS011;6220;53.580;9.758;2023-04-03T10:19:59;3.83;;;2.00;;
12312;SDS011;6220;53.580;9.758;2023-04-03T10:22:40;2.40;;;1.43;;
12312;SDS011;6220;53.580;9.758;2023-04-03T10:30:36;4.27;;;1.50;;
12312;SDS011;6220;53.580;9.758;2023-04-03T10:38:53;3.27;;;1.60;;
12312;SDS011;6220;53.580;9.758;2023-04-03T10:47:10;1.43;;;1.10;;
12312;SDS011;6220;53.580;9.758;2023-04-03T10:49:54;3.53;;;1.33;;
12312;SDS011;6220;53.580;9.758;2023-04-03T10:52:31;3.43;;;1.47;;
12312;SDS011;6220;53.580;9.758;2023-04-03T10:55:24;4.37;;;1.50;;
12312;SDS011;6220;53.580;9.758;2023-04-03T10:57:59;3.33;;;1.47;;
12312;SDS011;6220;53.580;9.758;2023-04-03T11:00:36;4.97;;;1.47;;
12312;SDS011;6220;53.580;9.758;2023-04-03T11:03:06;1.70;;;1.20;;
12312;SDS011;6220;53.580;9.758;2023-04-03T11:05:48;3.27;;;1.50;;
12312;SDS011;6220;53.580;9.758;2023-04-03T11:08:26;4.33;;;1.40;;
12312;SDS011;6220;53.580;9.758;2023-04-03T11:10:56;2.27;;;1.47;;
12312;SDS011;6220;53.580;9.758;2023-04-03T11:16:04;3.83;;;1.30;;
12312;SDS011;6220;53.580;9.758;2023-04-03T11:18:41;3.83;;;1.50;;
12312;SDS011;6220;53.580;9.758;2023-04-03T11:21:19;6.47;;;1.50;;
12312;SDS011;6220;53.580;9.758;2023-04-03T11:23:47;4.53;;;1.50;;
12312;SDS011;6220;53.580;9.758;2023-04-03T11:26:13;2.37;;;1.10;;
12312;SDS011;6220;53.580;9.758;2023-04-03T11:28:40;3.70;;;1.60;;
12312;SDS011;6220;53.580;9.758;2023-04-03T11:31:13;2.77;;;1.33;;
12312;SDS011;6220;53.580;9.758;2023-04-03T11:38:49;2.33;;;1.33;;
12312;SDS011;6220;53.580;9.758;2023-04-03T11:41:17;3.97;;;1.80;;
12312;SDS011;6220;53.580;9.758;2023-04-03T11:44:38;3.83;;;1.43;;
12312;SDS011;6220;53.580;9.758;2023-04-03T11:46:59;4.10;;;1.30;;
12312;SDS011;6220;53.580;9.758;2023-04-03T12:16:00;2.97;;;1.50;;
12312;SDS011;6220;53.580;9.758;2023-04-03T12:18:53;4.53;;;1.57;;
12312;SDS011;6220;53.580;9.758;2023-04-03T12:24:00;5.00;;;1.70;;
12312;SDS011;6220;53.580;9.758;2023-04-03T12:26:30;3.73;;;1.57;;
12312;SDS011;6220;53.580;9.758;2023-04-03T12:29:01;3.83;;;1.83;;
12312;SDS011;6220;53.580;9.758;2023-04-03T12:31:32;1.87;;;1.30;;
12312;SDS011;6220;53.580;9.758;2023-04-03T12:34:14;3.77;;;1.60;;
12312;SDS011;6220;53.580;9.758;2023-04-03T12:39:19;3.67;;;1.40;;
12312;SDS011;6220;53.580;9.758;2023-04-03T12:46:59;3.33;;;1.37;;
12312;SDS011;6220;53.580;9.758;2023-04-03T12:51:58;2.23;;;1.20;;
12312;SDS011;6220;53.580;9.758;2023-04-03T12:54:31;4.27;;;1.23;;
12312;SDS011;6220;53.580;9.758;2023-04-03T12:59:45;5.20;;;1.37;;
12312;SDS011;6220;53.580;9.758;2023-04-03T13:02:25;3.13;;;1.70;;
12312;SDS011;6220;53.580;9.758;2023-04-03T13:04:52;3.80;;;1.57;;
12312;SDS011;6220;53.580;9.758;2023-04-03T13:13:08;2.87;;;1.30;;
12312;SDS011;6220;53.580;9.758;2023-04-03T13:15:42;2.60;;;1.37;;
12312;SDS011;6220;53.580;9.758;2023-04-03T13:20:47;5.53;;;1.40;;
12312;SDS011;6220;53.580;9.758;2023-04-03T13:23:13;3.17;;;1.60;;
12312;SDS011;6220;53.580;9.758;2023-04-03T13:25:43;3.03;;;1.47;;
12312;SDS011;6220;53.580;9.758;2023-04-03T13:28:13;2.30;;;1.50;;
12312;SDS011;6220;53.580;9.758;2023-04-03T13:30:54;2.77;;;1.40;;
12312;SDS011;6220;53.580;9.758;2023-04-03T13:33:24;4.70;;;2.13;;
12312;SDS011;6220;53.580;9.758;2023-04-03T13:35:55;2.93;;;1.30;;
12312;SDS011;6220;53.580;9.758;2023-04-03T13:38:41;1.90;;;1.40;;
12312;SDS011;6220;53.580;9.758;2023-04-03T13:41:24;5.23;;;1.30;;
12312;SDS011;6220;53.580;9.758;2023-04-03T13:46:52;2.57;;;1.50;;
12312;SDS011;6220;53.580;9.758;2023-04-03T13:51:53;2.13;;;1.13;;
12312;SDS011;6220;53.580;9.758;2023-04-03T13:54:21;3.80;;;1.60;;
12312;SDS011;6220;53.580;9.758;2023-04-03T13:56:52;2.47;;;1.33;;
12312;SDS011;6220;53.580;9.758;2023-04-03T13:59:21;2.30;;;1.53;;
12312;SDS011;6220;53.580;9.758;2023-04-03T14:01:51;2.47;;;1.40;;
12312;SDS011;6220;53.580;9.758;2023-04-03T14:04:19;1.60;;;1.30;;
12312;SDS011;6220;53.580;9.758;2023-04-03T14:06:50;3.97;;;1.43;;
12312;SDS011;6220;53.580;9.758;2023-04-03T14:09:17;3.80;;;1.53;;
12312;SDS011;6220;53.580;9.758;2023-04-03T14:11:43;1.60;;;1.30;;
12312;SDS011;6220;53.580;9.758;2023-04-03T14:14:23;4.67;;;1.80;;
12312;SDS011;6220;53.580;9.758;2023-04-03T14:16:53;3.67;;;1.40;;
12312;SDS011;6220;53.580;9.758;2023-04-03T14:19:24;5.57;;;1.80;;
12312;SDS011;6220;53.580;9.758;2023-04-03T14:21:50;3.97;;;1.80;;
12312;SDS011;6220;53.580;9.758;2023-04-03T14:24:17;3.63;;;1.60;;
12312;SDS011;6220;53.580;9.758;2023-04-03T14:26:44;2.03;;;1.33;;
12312;SDS011;6220;53.580;9.758;2023-04-03T14:29:10;2.43;;;1.50;;
12312;SDS011;6220;53.580;9.758;2023-04-03T14:31:36;2.97;;;1.40;;
12312;SDS011;6220;53.580;9.758;2023-04-03T14:34:02;2.50;;;1.50;;
12312;SDS011;6220;53.580;9.758;2023-04-03T14:36:28;3.43;;;1.60;;
12312;SDS011;6220;53.580;9.758;2023-04-03T14:38:55;2.03;;;1.47;;
12312;SDS011;6220;53.580;9.758;2023-04-03T14:41:21;3.23;;;1.50;;
12312;SDS011;6220;53.580;9.758;2023-04-03T14:43:49;3.40;;;1.33;;
12312;SDS011;6220;53.580;9.758;2023-04-03T14:46:16;4.40;;;1.70;;
12312;SDS011;6220;53.580;9.758;2023-04-03T14:48:47;4.27;;;2.10;;
12312;SDS011;6220;53.580;9.758;2023-04-03T14:51:13;5.03;;;1.40;;
12312;SDS011;6220;53.580;9.758;2023-04-03T14:53:40;3.40;;;1.67;;
12312;SDS011;6220;53.580;9.758;2023-04-03T14:56:10;3.03;;;1.63;;
12312;SDS011;6220;53.580;9.758;2023-04-03T14:58:39;6.47;;;1.73;;
12312;SDS011;6220;53.580;9.758;2023-04-03T15:01:05;3.10;;;1.80;;
12312;SDS011;6220;53.580;9.758;2023-04-03T15:03:30;3.40;;;2.17;;
12312;SDS011;6220;53.580;9.758;2023-04-03T15:05:55;2.73;;;1.60;;
12312;SDS011;6220;53.580;9.758;2023-04-03T15:08:26;3.30;;;1.83;;
12312;SDS011;6220;53.580;9.758;2023-04-03T15:10:54;2.40;;;1.53;;
12312;SDS011;6220;53.580;9.758;2023-04-03T15:13:21;3.13;;;1.40;;
12312;SDS011;6220;53.580;9.758;2023-04-03T15:15:47;1.80;;;1.40;;
12312;SDS011;6220;53.580;9.758;2023-04-03T15:18:17;3.87;;;1.40;;
12312;SDS011;6220;53.580;9.758;2023-04-03T15:20:45;3.53;;;1.80;;
12312;SDS011;6220;53.580;9.758;2023-04-03T15:23:12;2.47;;;1.30;;
12312;SDS011;6220;53.580;9.758;2023-04-03T15:25:38;5.03;;;1.80;;
12312;SDS011;6220;53.580;9.758;2023-04-03T15:28:04;4.03;;;1.63;;
12312;SDS011;6220;53.580;9.758;2023-04-03T15:30:30;3.27;;;1.80;;
12312;SDS011;6220;53.580;9.758;2023-04-03T15:32:56;6.87;;;1.80;;
12312;SDS011;6220;53.580;9.758;2023-04-03T15:35:21;2.53;;;1.60;;
12312;SDS011;6220;53.580;9.758;2023-04-03T15:37:46;3.43;;;1.97;;
12312;SDS011;6220;53.580;9.758;2023-04-03T15:40:13;6.03;;;2.07;;
12312;SDS011;6220;53.580;9.758;2023-04-03T15:42:39;3.53;;;1.90;;
12312;SDS011;6220;53.580;9.758;2023-04-03T15:45:05;4.83;;;1.70;;
12312;SDS011;6220;53.580;9.758;2023-04-03T15:47:31;4.30;;;1.67;;
12312;SDS011;6220;53.580;9.758;2023-04-03T15:49:57;3.90;;;1.80;;
12312;SDS011;6220;53.580;9.758;2023-04-03T15:52:22;4.13;;;1.90;;
12312;SDS011;6220;53.580;9.758;2023-04-03T15:54:48;3.27;;;1.67;;
12312;SDS011;6220;53.580;9.758;2023-04-03T15:57:13;4.00;;;1.63;;
12312;SDS011;6220;53.580;9.758;2023-04-03T15:59:38;4.30;;;1.90;;
12312;SDS011;6220;53.580;9.758;2023-04-03T16:02:05;5.37;;;1.67;;
12312;SDS011;6220;53.580;9.758;2023-04-03T16:04:32;5.00;;;1.53;;
12312;SDS011;6220;53.580;9.758;2023-04-03T16:07:00;4.13;;;1.80;;
12312;SDS011;6220;53.580;9.758;2023-04-03T16:09:26;3.87;;;1.77;;
12312;SDS011;6220;53.580;9.758;2023-04-03T16:11:51;4.23;;;1.73;;
12312;SDS011;6220;53.580;9.758;2023-04-03T16:14:17;2.53;;;1.53;;
12312;SDS011;6220;53.580;9.758;2023-04-03T16:16:42;4.40;;;1.60;;
12312;SDS011;6220;53.580;9.758;2023-04-03T16:19:08;3.47;;;1.83;;
12312;SDS011;6220;53.580;9.758;2023-04-03T16:21:33;4.60;;;1.80;;
12312;SDS011;6220;53.580;9.758;2023-04-03T16:23:59;6.03;;;1.77;;
12312;SDS011;6220;53.580;9.758;2023-04-03T16:26:25;5.40;;;1.60;;
12312;SDS011;6220;53.580;9.758;2023-04-03T16:28:51;3.37;;;1.50;;
12312;SDS011;6220;53.580;9.758;2023-04-03T16:31:17;2.77;;;1.77;;
12312;SDS011;6220;53.580;9.758;2023-04-03T16:33:43;2.07;;;1.70;;
12312;SDS011;6220;53.580;9.758;2023-04-03T16:36:08;3.67;;;1.97;;
12312;SDS011;6220;53.580;9.758;2023-04-03T16:38:33;4.97;;;1.90;;
12312;SDS011;6220;53.580;9.758;2023-04-03T16:40:59;2.87;;;2.00;;
12312;SDS011;6220;53.580;9.758;2023-04-03T16:43:29;5.77;;;2.37;;
12312;SDS011;6220;53.580;9.758;2023-04-03T16:45:55;3.43;;;1.60;;
12312;SDS011;6220;53.580;9.758;2023-04-03T16:48:20;2.57;;;1.50;;
12312;SDS011;6220;53.580;9.758;2023-04-03T16:50:46;4.37;;;2.27;;
12312;SDS011;6220;53.580;9.758;2023-04-03T16:53:13;2.90;;;2.00;;
12312;SDS011;6220;53.580;9.758;2023-04-03T16:55:38;3.87;;;1.77;;